Hlavní strana
METAR-TAF:

METAR-TAF

Letiště :

Kajaani, Finsko

zeměpisná šířka: 64-17N, zeměpisná délka: 027-41E, výška: 143 m

Aktuální stav počasí

Zpráva byla vytvořena před 29 minutami, v 17:50 UTC
Jižní vítr 7 kt
Teplota -5°C
Vlhkost vzduchu 93%
Tlak 1008 hPa
Viditelnost 10 km a více
Zataženo ve výšce 2600 ft

METAR: EFKI 181750Z AUTO 19007KT 9999 OVC026 M05/M06 Q1008

Čas: 20:19 (18:19 UTC)

Předpověď počasí

Zpráva byla vytvořena před 12 hodinami a 53 minutami, v 05:26 UTC
Předpověď platná od 18 v 06 UTC do 18 v 09 UTC
Jihojihozápadní vítr 4 kt
Viditelnost 10 km a více
Zataženo ve výšce 3500 ft
slabé sněhové přeháňky
Pravděpodobnost 30%
od 18 v 06 UTC do 18 v 09 UTC
Oblačno až skoro zataženo ve výšce 200 ft

TAF: EFKI 180526Z 1806/1809 21004KT 9999 -SHSN OVC035 PROB30 1806/1809 BKN002

Stav a předpovědi počasí z více než 4 000 letišť (zprávy METAR a TAF).

Červené a žluté tečky na mapě představují dostupné meteorologické stanice.

Když kurzor umístíte na tečku, zobrazí se název stanice.

Pak kliknutím zobrazíte stav a předpověď počasí.

Chcete-li změnit mapu, kliknutím na zelené tlačítko se znaménkem +mapu přiblížíte, kliknutím na zelené tlačítko se znaménkem – mapu oddálíte a kliknutím na zelené šipky přejdete na sousední mapy.


METAR-TAF: